Time;durP1;ratioP1;P1;durP2;ratioP2;P2;SDS_P1;SDS_P2;PMS_P1;PMS_P2;Temp;Humidity;BMP_temperature;BMP_pressure;BME280_temperature;BME280_humidity;BME280_pressure;Samples;Min_cycle;Max_cycle;Signal;HPM_P1;HPM_P2
2022/09/07 00:00:14;;;;;;;8.47;5.10;;;;;;;;;;5023078;28;21055;-62
2022/09/07 00:02:40;;;;;;;8.77;4.77;;;;;;;;;;5028688;28;20548;-61
2022/09/07 00:05:07;;;;;;;10.03;4.90;;;;;;;;;;5029588;28;20436;-61
2022/09/07 00:07:34;;;;;;;8.87;4.70;;;;;;;;;;5029027;28;21200;-62
2022/09/07 00:10:01;;;;;;;8.73;5.20;;;;;;;;;;5028169;28;20521;-61
2022/09/07 00:12:28;;;;;;;6.93;4.53;;;;;;;;;;5017513;28;20466;-61
2022/09/07 00:14:54;;;;;;;8.27;5.03;;;;;;;;;;5027530;28;20426;-61
2022/09/07 00:17:21;;;;;;;6.87;4.90;;;;;;;;;;5028901;28;20473;-61
2022/09/07 00:19:48;;;;;;;9.97;5.00;;;;;;;;;;5029086;28;20223;-61
2022/09/07 00:22:15;;;;;;;9.10;5.47;;;;;;;;;;5028811;28;20548;-62
2022/09/07 00:24:42;;;;;;;7.27;4.93;;;;;;;;;;5029395;28;20536;-61
2022/09/07 00:27:10;;;;;;;5.67;4.13;;;;;;;;;;5029008;28;20191;-61
2022/09/07 00:29:36;;;;;;;7.77;4.60;;;;;;;;;;5028990;28;20465;-61
2022/09/07 00:32:04;;;;;;;6.80;4.33;;;;;;;;;;5021579;28;20442;-61
2022/09/07 00:34:30;;;;;;;7.47;4.33;;;;;;;;;;5030974;28;20500;-61
2022/09/07 00:36:57;;;;;;;9.43;4.10;;;;;;;;;;5031331;28;20513;-61
2022/09/07 00:39:24;;;;;;;8.20;4.90;;;;;;;;;;5029203;28;20441;-61
2022/09/07 00:41:51;;;;;;;9.10;4.67;;;;;;;;;;5027730;28;20971;-61
2022/09/07 00:44:37;;;;;;;5.90;4.07;;;;;;;;;;5028402;28;20230;-61
2022/09/07 00:47:11;;;;;;;6.60;4.50;;;;;;;;;;5028801;28;20194;-60
2022/09/07 00:49:38;;;;;;;10.20;4.30;;;;;;;;;;5028947;28;20437;-61
2022/09/07 00:52:05;;;;;;;8.70;4.43;;;;;;;;;;5028862;28;20437;-61
2022/09/07 00:54:33;;;;;;;5.63;3.97;;;;;;;;;;5027713;28;20448;-61
2022/09/07 00:57:00;;;;;;;7.10;4.07;;;;;;;;;;5029175;28;20481;-61
2022/09/07 00:59:34;;;;;;;8.23;3.90;;;;;;;;;;5028700;28;20450;-61
2022/09/07 01:02:01;;;;;;;7.03;3.83;;;;;;;;;;5022670;28;20436;-61
2022/09/07 01:04:28;;;;;;;5.07;3.30;;;;;;;;;;5029316;28;20484;-61
2022/09/07 01:06:55;;;;;;;5.50;3.57;;;;;;;;;;5019670;28;20434;-62
2022/09/07 01:09:23;;;;;;;7.50;4.00;;;;;;;;;;5032747;28;20643;-61
2022/09/07 01:11:50;;;;;;;5.63;3.27;;;;;;;;;;5015103;28;20430;-61
2022/09/07 01:14:18;;;;;;;6.67;3.53;;;;;;;;;;5020113;28;20433;-61
2022/09/07 01:17:21;;;;;;;7.33;3.77;;;;;;;;;;5029928;28;21051;-61
2022/09/07 01:19:50;;;;;;;5.23;3.67;;;;;;;;;;5010269;28;20484;-61
2022/09/07 01:22:27;;;;;;;5.80;3.23;;;;;;;;;;5011719;28;20838;-61
2022/09/07 01:24:57;;;;;;;4.57;3.13;;;;;;;;;;5025542;28;20446;-61
2022/09/07 01:27:30;;;;;;;5.57;3.60;;;;;;;;;;5020859;28;20440;-61
2022/09/07 01:30:09;;;;;;;5.93;3.70;;;;;;;;;;5031916;28;20516;-61
2022/09/07 01:32:39;;;;;;;5.53;3.50;;;;;;;;;;5030784;28;20524;-61
2022/09/07 01:35:08;;;;;;;5.67;3.60;;;;;;;;;;5017945;28;20474;-62
2022/09/07 01:37:42;;;;;;;5.03;3.50;;;;;;;;;;5030821;28;20472;-61
2022/09/07 01:40:19;;;;;;;5.10;3.20;;;;;;;;;;5029715;28;20465;-62
2022/09/07 01:42:53;;;;;;;5.07;3.30;;;;;;;;;;5031077;28;20445;-61
2022/09/07 01:45:21;;;;;;;5.53;3.23;;;;;;;;;;5029768;28;20445;-61
2022/09/07 01:47:49;;;;;;;5.90;3.80;;;;;;;;;;5018119;28;21029;-61
2022/09/07 01:50:18;;;;;;;5.90;3.50;;;;;;;;;;5025712;28;21041;-61
2022/09/07 01:52:59;;;;;;;5.20;3.20;;;;;;;;;;5013074;28;20441;-62
2022/09/07 01:55:26;;;;;;;3.43;2.97;;;;;;;;;;5027677;28;20794;-62
2022/09/07 01:58:01;;;;;;;8.97;3.17;;;;;;;;;;5031689;28;21322;-61
2022/09/07 02:00:27;;;;;;;4.70;3.07;;;;;;;;;;5047147;28;20807;-61
2022/09/07 02:02:56;;;;;;;8.53;3.80;;;;;;;;;;5046717;28;21310;-61
2022/09/07 02:05:25;;;;;;;5.67;3.43;;;;;;;;;;5030177;28;20785;-61
2022/09/07 02:08:03;;;;;;;4.83;3.03;;;;;;;;;;5029632;28;20492;-61
2022/09/07 02:10:35;;;;;;;4.00;2.80;;;;;;;;;;5031597;28;20449;-62
2022/09/07 02:13:05;;;;;;;4.80;3.20;;;;;;;;;;5030974;28;20447;-62
2022/09/07 02:15:55;;;;;;;4.23;3.33;;;;;;;;;;5046701;28;20438;-61
2022/09/07 02:18:22;;;;;;;5.67;3.50;;;;;;;;;;5028265;28;20489;-61
2022/09/07 02:20:50;;;;;;;5.00;2.97;;;;;;;;;;5046597;28;20480;-61
2022/09/07 02:23:18;;;;;;;6.63;3.40;;;;;;;;;;5046303;28;20512;-61
2022/09/07 02:25:46;;;;;;;5.73;3.47;;;;;;;;;;5031307;28;20460;-61
2022/09/07 02:28:13;;;;;;;5.87;3.03;;;;;;;;;;5045798;28;20434;-61
2022/09/07 02:30:40;;;;;;;5.03;3.40;;;;;;;;;;5041256;28;20529;-61
2022/09/07 02:33:07;;;;;;;6.23;3.30;;;;;;;;;;5027106;28;20434;-61
2022/09/07 02:35:34;;;;;;;6.03;3.57;;;;;;;;;;5046218;28;20581;-60
2022/09/07 02:38:02;;;;;;;6.40;4.07;;;;;;;;;;5045543;28;20473;-61
2022/09/07 02:40:28;;;;;;;6.00;3.77;;;;;;;;;;5045030;28;20592;-65
2022/09/07 02:42:56;;;;;;;5.67;3.30;;;;;;;;;;5030653;28;20515;-62
2022/09/07 02:45:23;;;;;;;7.20;3.70;;;;;;;;;;5046098;28;20434;-62
2022/09/07 02:47:57;;;;;;;6.80;3.73;;;;;;;;;;5017507;28;20528;-61
2022/09/07 02:50:36;;;;;;;5.53;3.10;;;;;;;;;;5045966;28;20521;-62
2022/09/07 02:53:12;;;;;;;4.47;3.20;;;;;;;;;;5034328;28;20861;-62
2022/09/07 02:55:50;;;;;;;6.53;3.47;;;;;;;;;;5030522;28;21290;-61
2022/09/07 02:58:17;;;;;;;6.00;3.97;;;;;;;;;;5045499;28;20472;-60
2022/09/07 03:00:48;;;;;;;6.60;3.37;;;;;;;;;;5030529;28;20520;-62
2022/09/07 03:03:34;;;;;;;5.03;3.53;;;;;;;;;;5045453;28;20436;-61
2022/09/07 03:06:02;;;;;;;5.90;3.30;;;;;;;;;;5025576;28;20466;-61
2022/09/07 03:08:36;;;;;;;8.93;3.47;;;;;;;;;;5045635;28;20464;-62
2022/09/07 03:11:03;;;;;;;6.60;3.27;;;;;;;;;;5029866;28;20473;-61
2022/09/07 03:13:30;;;;;;;5.10;3.17;;;;;;;;;;5030242;28;20437;-61
2022/09/07 03:15:57;;;;;;;6.10;3.73;;;;;;;;;;5026905;28;20430;-63
2022/09/07 03:18:24;;;;;;;6.10;3.73;;;;;;;;;;5029273;28;20822;-60
2022/09/07 03:20:51;;;;;;;5.63;3.23;;;;;;;;;;5022723;28;20429;-60
2022/09/07 03:23:18;;;;;;;4.80;3.20;;;;;;;;;;5029228;28;20468;-61
2022/09/07 03:25:46;;;;;;;6.10;3.33;;;;;;;;;;5029661;28;20440;-61
2022/09/07 03:28:13;;;;;;;6.93;3.73;;;;;;;;;;5029660;28;21046;-61
2022/09/07 03:30:42;;;;;;;7.97;3.60;;;;;;;;;;5029997;28;20556;-61
2022/09/07 03:33:09;;;;;;;6.20;3.30;;;;;;;;;;5029422;28;20437;-61
2022/09/07 03:35:36;;;;;;;5.43;3.20;;;;;;;;;;5009752;28;20966;-65
2022/09/07 03:38:03;;;;;;;6.00;3.40;;;;;;;;;;5019071;28;20488;-66
2022/09/07 03:40:30;;;;;;;9.50;3.80;;;;;;;;;;5012461;28;20786;-63
2022/09/07 03:42:57;;;;;;;6.77;3.37;;;;;;;;;;5030149;28;20494;-64
2022/09/07 03:45:23;;;;;;;7.83;3.80;;;;;;;;;;5021408;28;20446;-63
2022/09/07 03:47:50;;;;;;;6.23;3.50;;;;;;;;;;5014635;28;20940;-63
2022/09/07 03:50:17;;;;;;;6.60;4.00;;;;;;;;;;5025236;28;20467;-64
2022/09/07 03:52:44;;;;;;;6.30;3.70;;;;;;;;;;5027594;28;20872;-65
2022/09/07 03:55:10;;;;;;;5.50;3.30;;;;;;;;;;5019750;28;20439;-64
2022/09/07 03:57:39;;;;;;;6.17;3.80;;;;;;;;;;5011862;28;20923;-65
2022/09/07 04:00:06;;;;;;;6.20;3.40;;;;;;;;;;5021540;28;21003;-65
2022/09/07 04:02:37;;;;;;;6.07;3.80;;;;;;;;;;5023941;28;20425;-64
2022/09/07 04:05:05;;;;;;;6.77;3.83;;;;;;;;;;5021758;28;20440;-64
2022/09/07 04:07:31;;;;;;;9.13;3.93;;;;;;;;;;5020452;28;20537;-66
2022/09/07 04:09:58;;;;;;;7.67;3.37;;;;;;;;;;5022268;28;20469;-65
2022/09/07 04:12:25;;;;;;;11.13;3.90;;;;;;;;;;5009853;28;20434;-63
2022/09/07 04:14:52;;;;;;;7.67;3.97;;;;;;;;;;5018155;28;20447;-64
2022/09/07 04:17:19;;;;;;;7.70;3.97;;;;;;;;;;5023495;28;20557;-63
2022/09/07 04:19:46;;;;;;;9.27;3.70;;;;;;;;;;5023435;28;21004;-64
2022/09/07 04:22:13;;;;;;;8.90;3.80;;;;;;;;;;5014629;28;20466;-63
2022/09/07 04:24:40;;;;;;;7.93;3.83;;;;;;;;;;5023380;28;20445;-64
2022/09/07 04:27:07;;;;;;;7.80;3.70;;;;;;;;;;5015699;28;20438;-63
2022/09/07 04:29:34;;;;;;;12.50;5.13;;;;;;;;;;5017817;28;21406;-64
2022/09/07 04:32:01;;;;;;;10.37;4.53;;;;;;;;;;5020038;28;20428;-64
2022/09/07 04:34:28;;;;;;;11.67;5.47;;;;;;;;;;5026718;28;20469;-60
2022/09/07 04:36:54;;;;;;;14.03;4.90;;;;;;;;;;5029082;28;20432;-60
2022/09/07 04:39:21;;;;;;;9.47;5.37;;;;;;;;;;5029040;28;20480;-61
2022/09/07 04:41:48;;;;;;;10.73;5.37;;;;;;;;;;5029066;28;20479;-61
2022/09/07 04:44:15;;;;;;;15.33;7.23;;;;;;;;;;5029182;28;20805;-60
2022/09/07 04:46:42;;;;;;;7.93;4.43;;;;;;;;;;5028960;28;20431;-61
2022/09/07 04:49:09;;;;;;;9.03;4.57;;;;;;;;;;5028833;28;20440;-62
2022/09/07 04:51:36;;;;;;;7.77;4.20;;;;;;;;;;5029090;28;21141;-62
2022/09/07 04:54:03;;;;;;;11.60;5.83;;;;;;;;;;5028464;28;20466;-60
2022/09/07 04:56:30;;;;;;;11.37;4.90;;;;;;;;;;5028901;28;20474;-60
2022/09/07 04:58:58;;;;;;;8.27;5.03;;;;;;;;;;5028209;28;20545;-61
2022/09/07 05:01:24;;;;;;;8.73;4.83;;;;;;;;;;5025352;28;20787;-62
2022/09/07 05:03:51;;;;;;;11.83;4.90;;;;;;;;;;4989983;28;20474;-63
2022/09/07 05:06:19;;;;;;;8.30;4.67;;;;;;;;;;5022491;28;20426;-63
2022/09/07 05:08:46;;;;;;;12.23;5.33;;;;;;;;;;5017788;28;20582;-63
2022/09/07 05:11:13;;;;;;;10.73;5.33;;;;;;;;;;5022251;28;20882;-65
2022/09/07 05:13:40;;;;;;;8.90;4.77;;;;;;;;;;5014864;28;20454;-63
2022/09/07 05:16:08;;;;;;;9.17;5.30;;;;;;;;;;5022900;28;20438;-62
2022/09/07 05:18:35;;;;;;;15.00;5.47;;;;;;;;;;5028608;28;20511;-62
2022/09/07 05:21:11;;;;;;;8.50;4.60;;;;;;;;;;5028201;28;20445;-62
2022/09/07 05:23:38;;;;;;;13.07;5.60;;;;;;;;;;5008737;28;20485;-62
2022/09/07 05:26:05;;;;;;;13.87;5.50;;;;;;;;;;5021857;28;20533;-60
2022/09/07 05:28:32;;;;;;;9.00;4.53;;;;;;;;;;5028442;28;20430;-60
2022/09/07 05:31:06;;;;;;;8.67;4.67;;;;;;;;;;5028397;28;20449;-62
2022/09/07 05:33:52;;;;;;;11.57;5.37;;;;;;;;;;5016065;28;20430;-60
2022/09/07 05:36:39;;;;;;;18.23;5.50;;;;;;;;;;5028683;28;20199;-61
2022/09/07 05:39:06;;;;;;;7.83;4.20;;;;;;;;;;5028493;28;20557;-61
2022/09/07 05:41:33;;;;;;;11.57;5.23;;;;;;;;;;5028847;28;20850;-60
2022/09/07 05:43:59;;;;;;;19.17;5.07;;;;;;;;;;5046749;28;20942;-63
2022/09/07 05:46:46;;;;;;;11.07;4.57;;;;;;;;;;5032059;28;20198;-63
2022/09/07 05:49:13;;;;;;;18.53;4.80;;;;;;;;;;5032057;28;20434;-63
2022/09/07 05:51:40;;;;;;;14.07;4.73;;;;;;;;;;5031876;28;20199;-63
2022/09/07 05:54:07;;;;;;;11.53;4.17;;;;;;;;;;5031461;28;20270;-63
2022/09/07 05:56:34;;;;;;;12.37;4.47;;;;;;;;;;5031775;28;20191;-64
2022/09/07 05:59:01;;;;;;;12.00;4.43;;;;;;;;;;5018905;28;20270;-63
2022/09/07 06:01:28;;;;;;;11.17;4.80;;;;;;;;;;5031307;28;20245;-62
2022/09/07 06:03:55;;;;;;;14.03;5.60;;;;;;;;;;5031458;28;20265;-64
2022/09/07 06:06:22;;;;;;;13.73;5.10;;;;;;;;;;5031122;28;20681;-62
2022/09/07 06:08:51;;;;;;;13.17;5.37;;;;;;;;;;5030128;28;20532;-63
2022/09/07 06:11:35;;;;;;;10.33;4.80;;;;;;;;;;5028789;28;20187;-64
2022/09/07 06:14:02;;;;;;;11.73;5.47;;;;;;;;;;5022190;28;20188;-64
2022/09/07 06:16:47;;;;;;;12.90;5.00;;;;;;;;;;5031267;28;20672;-63
2022/09/07 06:19:14;;;;;;;8.33;4.50;;;;;;;;;;5031369;28;20214;-63
2022/09/07 06:21:41;;;;;;;10.70;4.87;;;;;;;;;;5031482;28;20237;-64
2022/09/07 06:24:08;;;;;;;13.13;4.67;;;;;;;;;;5014698;28;20639;-63
2022/09/07 06:26:35;;;;;;;10.20;4.80;;;;;;;;;;5022403;28;20261;-63
2022/09/07 06:29:02;;;;;;;6.40;4.10;;;;;;;;;;5017290;28;20676;-63
2022/09/07 06:31:31;;;;;;;10.37;4.37;;;;;;;;;;5017672;28;20567;-63
2022/09/07 06:33:59;;;;;;;12.13;4.27;;;;;;;;;;5026852;28;20191;-64
2022/09/07 06:36:26;;;;;;;6.60;3.53;;;;;;;;;;5011983;28;20203;-67
2022/09/07 06:38:54;;;;;;;12.97;4.50;;;;;;;;;;5010052;28;20211;-63
2022/09/07 06:41:22;;;;;;;9.93;4.13;;;;;;;;;;5015215;28;20586;-64
2022/09/07 06:44:11;;;;;;;11.27;4.30;;;;;;;;;;5012775;28;20200;-64
2022/09/07 06:46:38;;;;;;;13.20;4.20;;;;;;;;;;5014469;28;20539;-63
2022/09/07 06:49:25;;;;;;;8.67;4.70;;;;;;;;;;5013080;28;20791;-62
2022/09/07 06:51:52;;;;;;;8.97;4.63;;;;;;;;;;5017577;28;20176;-63
2022/09/07 06:54:19;;;;;;;8.97;4.10;;;;;;;;;;5009588;28;20197;-64
2022/09/07 06:57:09;;;;;;;12.40;4.00;;;;;;;;;;5011064;28;20196;-63
2022/09/07 06:59:36;;;;;;;8.93;4.07;;;;;;;;;;5016080;28;20220;-64
2022/09/07 07:02:04;;;;;;;10.33;4.27;;;;;;;;;;5020115;28;20302;-64
2022/09/07 07:04:30;;;;;;;11.30;4.10;;;;;;;;;;5012088;28;20291;-64
2022/09/07 07:07:03;;;;;;;10.23;4.20;;;;;;;;;;5020662;28;20207;-62
2022/09/07 07:09:30;;;;;;;7.33;3.83;;;;;;;;;;5013698;28;21199;-63
2022/09/07 07:11:57;;;;;;;6.47;3.27;;;;;;;;;;5009185;28;20193;-63
2022/09/07 07:14:24;;;;;;;6.67;3.40;;;;;;;;;;5014478;28;20656;-64
2022/09/07 07:16:51;;;;;;;8.83;3.83;;;;;;;;;;5021026;28;20200;-65
2022/09/07 07:19:18;;;;;;;12.47;3.27;;;;;;;;;;5014588;28;20290;-64
2022/09/07 07:21:45;;;;;;;10.40;2.90;;;;;;;;;;5011647;28;20198;-63
2022/09/07 07:24:32;;;;;;;11.73;3.70;;;;;;;;;;5012172;28;20642;-63
2022/09/07 07:26:59;;;;;;;13.13;3.90;;;;;;;;;;5017761;28;20696;-63
2022/09/07 07:29:26;;;;;;;12.87;3.47;;;;;;;;;;5010021;28;20199;-63
2022/09/07 07:31:54;;;;;;;9.53;3.30;;;;;;;;;;5017397;28;20183;-64
2022/09/07 07:34:21;;;;;;;6.80;2.43;;;;;;;;;;5016934;28;20231;-62
2022/09/07 07:36:48;;;;;;;10.63;2.80;;;;;;;;;;5018738;28;20207;-63
2022/09/07 07:39:15;;;;;;;4.90;2.60;;;;;;;;;;5015931;28;20706;-62
2022/09/07 07:42:02;;;;;;;6.63;2.40;;;;;;;;;;5006788;28;20219;-62
2022/09/07 07:44:31;;;;;;;9.33;2.67;;;;;;;;;;5010491;28;20310;-63
2022/09/07 07:46:58;;;;;;;6.63;2.50;;;;;;;;;;5012878;28;20350;-63
2022/09/07 07:49:25;;;;;;;5.97;2.43;;;;;;;;;;5006986;28;20563;-63
2022/09/07 07:51:53;;;;;;;6.63;2.50;;;;;;;;;;5020216;28;20192;-62
2022/09/07 07:54:40;;;;;;;7.33;2.70;;;;;;;;;;5007588;28;20285;-62
2022/09/07 07:57:07;;;;;;;5.30;1.80;;;;;;;;;;5019079;28;20195;-67
2022/09/07 07:59:34;;;;;;;4.63;2.10;;;;;;;;;;5010567;28;20235;-62
2022/09/07 08:02:03;;;;;;;2.67;1.83;;;;;;;;;;5007316;28;20222;-61
2022/09/07 08:04:31;;;;;;;2.80;1.90;;;;;;;;;;5013786;28;20239;-64
2022/09/07 08:07:01;;;;;;;4.77;1.70;;;;;;;;;;5013435;28;20254;-63
2022/09/07 08:09:36;;;;;;;3.03;1.50;;;;;;;;;;5020197;28;20194;-62
2022/09/07 08:12:02;;;;;;;6.17;1.77;;;;;;;;;;5015152;28;20227;-63
2022/09/07 08:14:29;;;;;;;4.10;2.00;;;;;;;;;;5017991;28;20189;-64
2022/09/07 08:16:56;;;;;;;5.73;2.27;;;;;;;;;;5016421;28;20200;-62
2022/09/07 08:19:23;;;;;;;8.30;2.17;;;;;;;;;;5013418;28;20211;-63
2022/09/07 08:21:50;;;;;;;6.50;2.10;;;;;;;;;;5017130;28;20200;-65
2022/09/07 08:24:17;;;;;;;10.10;2.10;;;;;;;;;;5008713;28;20250;-65
2022/09/07 08:26:43;;;;;;;4.43;1.90;;;;;;;;;;5016746;28;20191;-66
2022/09/07 08:29:10;;;;;;;6.43;1.80;;;;;;;;;;5013540;28;20253;-66
2022/09/07 08:31:37;;;;;;;3.67;1.80;;;;;;;;;;5014751;28;20187;-66
2022/09/07 08:34:06;;;;;;;8.00;1.93;;;;;;;;;;5017351;28;20195;-64
2022/09/07 08:36:33;;;;;;;7.73;2.17;;;;;;;;;;5008591;28;20188;-65
2022/09/07 08:39:00;;;;;;;7.73;1.90;;;;;;;;;;5011038;28;20581;-66
2022/09/07 08:41:33;;;;;;;3.63;1.50;;;;;;;;;;5010628;28;20227;-64
2022/09/07 08:44:01;;;;;;;3.00;1.83;;;;;;;;;;5013982;28;20420;-65
2022/09/07 08:46:30;;;;;;;6.73;1.60;;;;;;;;;;5018607;28;20180;-64
2022/09/07 08:48:58;;;;;;;4.00;1.20;;;;;;;;;;5014681;28;20195;-67
2022/09/07 08:51:42;;;;;;;5.20;1.37;;;;;;;;;;5011005;28;20190;-65
2022/09/07 08:54:12;;;;;;;2.93;1.23;;;;;;;;;;5014412;28;20195;-63
2022/09/07 08:56:43;;;;;;;3.37;1.50;;;;;;;;;;5008704;28;20204;-64
2022/09/07 08:59:34;;;;;;;3.00;1.27;;;;;;;;;;5012429;28;20212;-64
2022/09/07 09:02:01;;;;;;;5.43;1.10;;;;;;;;;;5016471;28;20193;-65
2022/09/07 09:04:48;;;;;;;5.50;1.00;;;;;;;;;;5202790;22;20231;-64
2022/09/07 09:07:34;;;;;;;3.90;1.40;;;;;;;;;;4981555;28;20200;-65
2022/09/07 09:10:20;;;;;;;2.93;1.10;;;;;;;;;;4982052;28;20236;-65
2022/09/07 09:13:05;;;;;;;2.33;1.17;;;;;;;;;;4982501;28;20197;-65
2022/09/07 09:15:40;;;;;;;2.73;1.00;;;;;;;;;;4981848;28;20199;-62
2022/09/07 09:18:12;;;;;;;6.10;1.20;;;;;;;;;;4983923;28;20238;-64
2022/09/07 09:20:40;;;;;;;3.17;1.23;;;;;;;;;;4985993;28;20208;-64
2022/09/07 09:23:11;;;;;;;3.40;1.20;;;;;;;;;;4984969;28;20323;-65
2022/09/07 09:25:38;;;;;;;4.00;1.00;;;;;;;;;;4985404;28;20255;-63
2022/09/07 09:28:08;;;;;;;2.80;1.10;;;;;;;;;;4985036;28;20197;-63
2022/09/07 09:30:34;;;;;;;2.13;1.10;;;;;;;;;;4985028;28;20209;-65
2022/09/07 09:33:28;;;;;;;1.23;0.73;;;;;;;;;;4985491;28;20871;-64
2022/09/07 09:35:55;;;;;;;3.67;1.00;;;;;;;;;;4982502;28;20215;-63
2022/09/07 09:38:28;;;;;;;2.10;0.97;;;;;;;;;;4985620;28;20716;-64
2022/09/07 09:40:55;;;;;;;4.40;1.30;;;;;;;;;;4977971;28;20272;-64
2022/09/07 09:43:26;;;;;;;3.33;1.23;;;;;;;;;;4984818;28;20192;-64
2022/09/07 09:45:54;;;;;;;3.43;1.00;;;;;;;;;;4985936;28;20201;-62
2022/09/07 09:48:41;;;;;;;5.30;1.33;;;;;;;;;;4986078;28;20193;-62
2022/09/07 09:51:08;;;;;;;2.47;1.00;;;;;;;;;;4986505;28;20992;-63
2022/09/07 09:53:56;;;;;;;2.33;0.80;;;;;;;;;;4986472;28;20208;-63
2022/09/07 09:56:34;;;;;;;1.80;0.93;;;;;;;;;;4985344;28;20196;-64
2022/09/07 09:59:34;;;;;;;3.37;1.10;;;;;;;;;;4986519;28;20576;-63
2022/09/07 10:02:25;;;;;;;4.10;1.30;;;;;;;;;;4960144;28;20201;-64
2022/09/07 10:05:19;;;;;;;1.33;0.93;;;;;;;;;;4983124;28;20252;-63
2022/09/07 10:07:49;;;;;;;1.67;1.00;;;;;;;;;;4984691;28;20201;-62
2022/09/07 10:10:16;;;;;;;1.77;0.83;;;;;;;;;;4987999;28;20219;-61
2022/09/07 10:12:43;;;;;;;2.90;0.90;;;;;;;;;;4991121;28;20548;-60
2022/09/07 10:15:23;;;;;;;2.57;1.10;;;;;;;;;;4989127;28;20280;-61
2022/09/07 10:17:50;;;;;;;3.10;1.00;;;;;;;;;;4990289;28;20656;-61
2022/09/07 10:20:18;;;;;;;1.40;0.93;;;;;;;;;;4990768;28;20240;-63
2022/09/07 10:22:46;;;;;;;2.60;0.87;;;;;;;;;;4991030;28;20283;-62
2022/09/07 10:25:29;;;;;;;2.17;0.80;;;;;;;;;;5006368;28;20283;-59
2022/09/07 10:28:03;;;;;;;1.63;1.03;;;;;;;;;;4991475;28;20192;-62
2022/09/07 10:30:38;;;;;;;3.20;1.00;;;;;;;;;;4992098;28;20257;-60
2022/09/07 10:33:17;;;;;;;3.37;1.27;;;;;;;;;;4991573;28;20207;-60
2022/09/07 10:35:55;;;;;;;3.17;1.00;;;;;;;;;;4991474;28;20192;-60
2022/09/07 10:38:23;;;;;;;1.57;1.07;;;;;;;;;;5006248;28;20274;-60
2022/09/07 10:40:58;;;;;;;3.40;1.10;;;;;;;;;;5006173;28;20608;-60
2022/09/07 10:43:29;;;;;;;2.80;1.00;;;;;;;;;;4991618;28;20237;-62
2022/09/07 10:46:11;;;;;;;3.33;1.10;;;;;;;;;;4991870;28;20199;-61
2022/09/07 10:48:56;;;;;;;1.10;1.00;;;;;;;;;;4991621;28;20197;-68
2022/09/07 10:51:31;;;;;;;2.73;1.27;;;;;;;;;;4991214;28;20295;-59
2022/09/07 10:53:58;;;;;;;3.53;1.30;;;;;;;;;;4991123;28;20237;-59
2022/09/07 10:56:48;;;;;;;3.07;1.30;;;;;;;;;;4991055;28;20940;-60
2022/09/07 10:59:28;;;;;;;3.53;1.23;;;;;;;;;;4990903;28;20212;-60
2022/09/07 11:02:29;;;;;;;37.40;6.00;;;;;;;;;;4989644;28;20357;-59
2022/09/07 11:04:59;;;;;;;2.70;1.10;;;;;;;;;;4978379;28;20221;-62
2022/09/07 11:07:29;;;;;;;1.77;1.30;;;;;;;;;;5003179;28;20572;-62
2022/09/07 11:09:58;;;;;;;3.07;1.20;;;;;;;;;;5003425;28;20286;-61
2022/09/07 11:12:28;;;;;;;4.50;1.10;;;;;;;;;;5004104;28;20203;-61
2022/09/07 11:15:00;;;;;;;3.20;1.27;;;;;;;;;;5003799;28;20294;-61
2022/09/07 11:17:27;;;;;;;3.33;1.10;;;;;;;;;;5003579;28;20599;-62
2022/09/07 11:20:12;;;;;;;4.03;1.30;;;;;;;;;;4993641;28;20216;-61
2022/09/07 11:22:44;;;;;;;1.90;1.27;;;;;;;;;;5002919;28;20200;-62
2022/09/07 11:25:17;;;;;;;10.93;2.67;;;;;;;;;;5002487;28;20212;-61
2022/09/07 11:28:06;;;;;;;5.50;2.00;;;;;;;;;;5003985;28;20250;-60
2022/09/07 11:30:34;;;;;;;3.60;1.90;;;;;;;;;;4995137;28;20203;-61
2022/09/07 11:33:10;;;;;;;5.20;2.10;;;;;;;;;;5003813;28;20186;-60
2022/09/07 11:35:40;;;;;;;4.47;1.87;;;;;;;;;;4996178;28;20196;-60
2022/09/07 11:38:16;;;;;;;3.17;2.10;;;;;;;;;;4999373;28;20661;-61
2022/09/07 11:40:48;;;;;;;4.17;1.70;;;;;;;;;;4992325;28;20226;-61
2022/09/07 11:43:15;;;;;;;1.87;1.00;;;;;;;;;;5003065;28;20206;-61
2022/09/07 11:45:48;;;;;;;1.30;1.10;;;;;;;;;;5003106;28;20190;-60
2022/09/07 11:48:21;;;;;;;2.70;1.70;;;;;;;;;;5002908;28;20203;-60
2022/09/07 11:50:50;;;;;;;3.37;2.17;;;;;;;;;;5001362;28;20257;-62
2022/09/07 11:53:24;;;;;;;2.77;1.90;;;;;;;;;;5003065;28;20226;-62
2022/09/07 11:55:58;;;;;;;4.00;1.70;;;;;;;;;;4993339;28;20220;-62
2022/09/07 11:58:27;;;;;;;5.17;1.83;;;;;;;;;;4995245;28;20587;-62
2022/09/07 12:00:54;;;;;;;3.60;2.00;;;;;;;;;;5001149;28;20251;-65
2022/09/07 12:03:44;;;;;;;3.67;1.70;;;;;;;;;;5002289;28;20200;-65
2022/09/07 12:06:14;;;;;;;4.23;2.00;;;;;;;;;;4975175;28;20212;-66
2022/09/07 12:08:53;;;;;;;3.87;1.70;;;;;;;;;;5001997;28;20218;-65
2022/09/07 12:11:38;;;;;;;4.33;1.80;;;;;;;;;;5001978;28;20269;-65
2022/09/07 12:14:15;;;;;;;6.43;1.97;;;;;;;;;;4994995;28;20287;-64
2022/09/07 12:16:55;;;;;;;2.40;1.43;;;;;;;;;;5002128;28;20259;-66
2022/09/07 12:19:23;;;;;;;3.80;1.57;;;;;;;;;;5001178;28;20205;-65
2022/09/07 12:21:50;;;;;;;4.30;1.57;;;;;;;;;;5003362;28;20196;-65
2022/09/07 12:24:35;;;;;;;15.33;2.37;;;;;;;;;;5002369;28;20548;-64
2022/09/07 12:27:03;;;;;;;4.20;1.57;;;;;;;;;;5002853;28;20652;-66
2022/09/07 12:29:30;;;;;;;5.50;1.53;;;;;;;;;;5002593;28;20587;-66
2022/09/07 12:31:58;;;;;;;2.30;1.33;;;;;;;;;;5002233;28;20208;-66
2022/09/07 12:34:48;;;;;;;4.10;1.60;;;;;;;;;;4994105;28;20555;-65
2022/09/07 12:37:15;;;;;;;5.63;1.80;;;;;;;;;;5002828;28;20199;-64
2022/09/07 12:39:44;;;;;;;3.43;1.70;;;;;;;;;;5002170;28;20438;-65
2022/09/07 12:42:11;;;;;;;4.20;1.83;;;;;;;;;;5001506;28;20196;-67
2022/09/07 12:45:21;;;;;;;2.73;1.53;;;;;;;;;;5001458;28;20207;-64
2022/09/07 12:47:55;;;;;;;2.67;1.50;;;;;;;;;;5001280;28;20212;-62
2022/09/07 12:50:26;;;;;;;2.30;0.93;;;;;;;;;;4987987;28;20273;-62
2022/09/07 12:53:14;;;;;;;4.60;1.43;;;;;;;;;;5002966;28;20200;-62
2022/09/07 12:55:48;;;;;;;2.57;1.10;;;;;;;;;;5005201;28;20219;-60
2022/09/07 12:58:46;;;;;;;1.83;1.10;;;;;;;;;;5005170;28;20611;-62
2022/09/07 13:01:22;;;;;;;1.60;1.03;;;;;;;;;;4995032;28;20227;-62
2022/09/07 13:03:49;;;;;;;4.07;1.10;;;;;;;;;;4999452;28;20199;-62
2022/09/07 13:06:32;;;;;;;4.40;1.20;;;;;;;;;;4996370;28;20319;-62
2022/09/07 13:09:34;;;;;;;2.30;1.20;;;;;;;;;;5005193;28;22117;-61
2022/09/07 13:12:03;;;;;;;5.00;1.20;;;;;;;;;;5007564;28;20196;-62
2022/09/07 13:14:31;;;;;;;2.33;0.90;;;;;;;;;;4999645;28;20192;-62
2022/09/07 13:17:18;;;;;;;1.57;0.90;;;;;;;;;;5005702;28;20602;-61
2022/09/07 13:19:45;;;;;;;1.77;0.93;;;;;;;;;;5008706;28;20246;-62
2022/09/07 13:22:31;;;;;;;1.23;0.90;;;;;;;;;;5012629;28;20271;-61
2022/09/07 13:24:58;;;;;;;1.97;0.90;;;;;;;;;;5008408;28;20199;-61
2022/09/07 13:27:40;;;;;;;2.70;0.90;;;;;;;;;;5011293;28;20199;-62
2022/09/07 13:30:14;;;;;;;2.93;0.90;;;;;;;;;;4978295;28;20768;-62
2022/09/07 13:32:41;;;;;;;2.33;1.00;;;;;;;;;;5012209;28;20224;-62
2022/09/07 13:35:31;;;;;;;1.20;0.97;;;;;;;;;;4997865;28;20196;-62
2022/09/07 13:38:01;;;;;;;2.63;1.10;;;;;;;;;;5011785;28;20192;-62
2022/09/07 13:40:32;;;;;;;3.43;1.00;;;;;;;;;;4993199;28;20247;-62
2022/09/07 13:42:59;;;;;;;2.07;0.90;;;;;;;;;;5011998;28;20304;-61
2022/09/07 13:45:35;;;;;;;3.37;1.10;;;;;;;;;;4994982;28;20196;-62
2022/09/07 13:48:20;;;;;;;1.70;0.70;;;;;;;;;;5009798;28;20199;-62
2022/09/07 13:50:47;;;;;;;1.60;0.87;;;;;;;;;;5009125;28;20195;-62
2022/09/07 13:53:20;;;;;;;1.93;0.90;;;;;;;;;;5008588;28;20203;-62
2022/09/07 13:55:50;;;;;;;2.53;0.77;;;;;;;;;;4992743;28;20194;-62
2022/09/07 13:58:24;;;;;;;1.53;1.00;;;;;;;;;;5011251;28;20986;-62
2022/09/07 14:00:55;;;;;;;4.73;1.03;;;;;;;;;;5011555;28;20914;-62
2022/09/07 14:03:23;;;;;;;3.27;0.90;;;;;;;;;;5009181;28;20215;-62
2022/09/07 14:06:10;;;;;;;3.90;0.90;;;;;;;;;;5009880;28;20579;-61
2022/09/07 14:08:36;;;;;;;2.03;1.00;;;;;;;;;;5010680;28;20200;-61
2022/09/07 14:11:25;;;;;;;1.20;0.70;;;;;;;;;;5010016;28;20723;-62
2022/09/07 14:14:22;;;;;;;2.43;0.80;;;;;;;;;;5006693;28;20186;-62
2022/09/07 14:16:53;;;;;;;1.57;0.80;;;;;;;;;;5004449;28;20192;-61
2022/09/07 14:19:23;;;;;;;1.63;0.70;;;;;;;;;;5005175;28;20954;-62
2022/09/07 14:22:04;;;;;;;1.43;0.80;;;;;;;;;;4992180;28;20613;-60
2022/09/07 14:24:40;;;;;;;0.90;0.70;;;;;;;;;;4993518;28;20663;-62
2022/09/07 14:27:21;;;;;;;1.43;0.60;;;;;;;;;;5010655;28;20192;-63
2022/09/07 14:29:48;;;;;;;2.30;0.97;;;;;;;;;;4998032;28;20196;-62
2022/09/07 14:32:16;;;;;;;1.43;0.80;;;;;;;;;;5009477;28;20195;-62
2022/09/07 14:34:43;;;;;;;1.03;0.70;;;;;;;;;;5009293;28;20180;-61
2022/09/07 14:37:14;;;;;;;1.10;0.73;;;;;;;;;;5008393;28;20191;-62
2022/09/07 14:39:42;;;;;;;6.03;1.43;;;;;;;;;;5008225;28;20246;-62
2022/09/07 14:42:16;;;;;;;2.73;1.00;;;;;;;;;;5007640;28;20250;-62
2022/09/07 14:44:44;;;;;;;4.97;2.60;;;;;;;;;;5008094;28;20207;-62
2022/09/07 14:47:22;;;;;;;4.87;2.27;;;;;;;;;;5006742;28;20287;-62
2022/09/07 14:49:51;;;;;;;4.27;1.97;;;;;;;;;;5008105;28;20192;-62
2022/09/07 14:52:37;;;;;;;0.83;0.60;;;;;;;;;;5009141;28;20195;-62
2022/09/07 14:55:29;;;;;;;7.47;1.40;;;;;;;;;;5008374;28;20192;-62
2022/09/07 14:58:08;;;;;;;12.30;4.00;;;;;;;;;;5009728;28;20201;-62
2022/09/07 15:00:35;;;;;;;12.60;4.87;;;;;;;;;;5003809;28;20251;-62
2022/09/07 15:03:20;;;;;;;7.33;2.00;;;;;;;;;;5009436;28;20663;-62
2022/09/07 15:05:50;;;;;;;4.17;2.13;;;;;;;;;;5001425;28;20229;-62
2022/09/07 15:08:40;;;;;;;3.30;1.00;;;;;;;;;;5003254;28;20196;-62